sensor_id;sensor_type;location;lat;lon;timestamp;temperature;humidity
4215;DHT22;2121;48.062;7.850;2023-12-07T00:01:49;1.60;99.90
4215;DHT22;2121;48.062;7.850;2023-12-07T00:04:15;1.60;99.90
4215;DHT22;2121;48.062;7.850;2023-12-07T00:06:40;1.60;99.90
4215;DHT22;2121;48.062;7.850;2023-12-07T00:09:06;1.60;99.90
4215;DHT22;2121;48.062;7.850;2023-12-07T00:11:32;1.50;99.90
4215;DHT22;2121;48.062;7.850;2023-12-07T00:13:57;1.50;99.90
4215;DHT22;2121;48.062;7.850;2023-12-07T00:16:23;1.40;99.90
4215;DHT22;2121;48.062;7.850;2023-12-07T00:18:49;1.40;99.90
4215;DHT22;2121;48.062;7.850;2023-12-07T00:21:15;1.40;99.90
4215;DHT22;2121;48.062;7.850;2023-12-07T00:23:40;1.40;99.90
4215;DHT22;2121;48.062;7.850;2023-12-07T00:26:06;1.40;99.90
4215;DHT22;2121;48.062;7.850;2023-12-07T00:28:32;1.50;99.90
4215;DHT22;2121;48.062;7.850;2023-12-07T00:30:57;1.50;99.90
4215;DHT22;2121;48.062;7.850;2023-12-07T00:33:23;1.50;99.90
4215;DHT22;2121;48.062;7.850;2023-12-07T00:35:49;1.40;99.90
4215;DHT22;2121;48.062;7.850;2023-12-07T00:38:15;1.40;99.90
4215;DHT22;2121;48.062;7.850;2023-12-07T00:40:40;1.40;99.90
4215;DHT22;2121;48.062;7.850;2023-12-07T00:43:07;1.30;99.90
4215;DHT22;2121;48.062;7.850;2023-12-07T00:45:33;1.30;99.90
4215;DHT22;2121;48.062;7.850;2023-12-07T00:47:58;1.30;99.90
4215;DHT22;2121;48.062;7.850;2023-12-07T00:50:24;1.40;99.90
4215;DHT22;2121;48.062;7.850;2023-12-07T00:52:50;1.50;99.90
4215;DHT22;2121;48.062;7.850;2023-12-07T00:55:15;1.50;99.90
4215;DHT22;2121;48.062;7.850;2023-12-07T00:57:41;1.50;99.90
4215;DHT22;2121;48.062;7.850;2023-12-07T01:00:07;1.40;99.90
4215;DHT22;2121;48.062;7.850;2023-12-07T01:02:33;1.50;99.90
4215;DHT22;2121;48.062;7.850;2023-12-07T01:04:59;1.50;99.90
4215;DHT22;2121;48.062;7.850;2023-12-07T01:07:26;1.50;99.90
4215;DHT22;2121;48.062;7.850;2023-12-07T01:09:52;1.50;99.90
4215;DHT22;2121;48.062;7.850;2023-12-07T01:12:18;1.40;99.90
4215;DHT22;2121;48.062;7.850;2023-12-07T01:14:43;1.30;99.90
4215;DHT22;2121;48.062;7.850;2023-12-07T01:17:09;1.20;99.90
4215;DHT22;2121;48.062;7.850;2023-12-07T01:19:35;1.20;99.90
4215;DHT22;2121;48.062;7.850;2023-12-07T01:22:01;1.10;99.90
4215;DHT22;2121;48.062;7.850;2023-12-07T01:24:26;1.00;99.90
4215;DHT22;2121;48.062;7.850;2023-12-07T01:26:52;1.00;99.90
4215;DHT22;2121;48.062;7.850;2023-12-07T01:29:19;0.90;99.90
4215;DHT22;2121;48.062;7.850;2023-12-07T01:31:45;0.80;99.90
4215;DHT22;2121;48.062;7.850;2023-12-07T01:34:11;0.70;99.90
4215;DHT22;2121;48.062;7.850;2023-12-07T01:36:36;0.70;99.90
4215;DHT22;2121;48.062;7.850;2023-12-07T01:39:02;0.60;99.90
4215;DHT22;2121;48.062;7.850;2023-12-07T01:41:28;0.50;99.90
4215;DHT22;2121;48.062;7.850;2023-12-07T01:43:54;0.40;99.90
4215;DHT22;2121;48.062;7.850;2023-12-07T01:46:20;0.40;99.90
4215;DHT22;2121;48.062;7.850;2023-12-07T01:48:46;0.30;99.90
4215;DHT22;2121;48.062;7.850;2023-12-07T01:51:15;0.30;99.90
4215;DHT22;2121;48.062;7.850;2023-12-07T01:53:42;0.30;99.90
4215;DHT22;2121;48.062;7.850;2023-12-07T01:56:08;0.20;99.90
4215;DHT22;2121;48.062;7.850;2023-12-07T01:58:35;0.10;99.90
4215;DHT22;2121;48.062;7.850;2023-12-07T02:01:02;0.00;99.90
4215;DHT22;2121;48.062;7.850;2023-12-07T02:03:30;-0.10;99.90
4215;DHT22;2121;48.062;7.850;2023-12-07T02:05:57;-0.10;99.90
4215;DHT22;2121;48.062;7.850;2023-12-07T02:08:24;-0.20;99.90
4215;DHT22;2121;48.062;7.850;2023-12-07T02:10:50;-0.30;99.90
4215;DHT22;2121;48.062;7.850;2023-12-07T02:13:18;-0.40;99.90
4215;DHT22;2121;48.062;7.850;2023-12-07T02:15:45;-0.30;99.90
4215;DHT22;2121;48.062;7.850;2023-12-07T02:18:43;-0.40;99.90
4215;DHT22;2121;48.062;7.850;2023-12-07T02:21:18;-0.50;99.90
4215;DHT22;2121;48.062;7.850;2023-12-07T02:23:50;-0.60;99.90
4215;DHT22;2121;48.062;7.850;2023-12-07T02:29:26;-0.50;99.90
4215;DHT22;2121;48.062;7.850;2023-12-07T02:31:51;-0.40;99.90
4215;DHT22;2121;48.062;7.850;2023-12-07T02:34:17;-0.30;99.90
4215;DHT22;2121;48.062;7.850;2023-12-07T02:36:46;-0.30;99.90
4215;DHT22;2121;48.062;7.850;2023-12-07T02:39:12;-0.20;99.90
4215;DHT22;2121;48.062;7.850;2023-12-07T02:41:39;-0.30;99.90
4215;DHT22;2121;48.062;7.850;2023-12-07T02:44:06;-0.30;99.90
4215;DHT22;2121;48.062;7.850;2023-12-07T02:46:33;-0.40;99.90
4215;DHT22;2121;48.062;7.850;2023-12-07T02:48:59;-0.40;99.90
4215;DHT22;2121;48.062;7.850;2023-12-07T02:51:24;-0.50;99.90
4215;DHT22;2121;48.062;7.850;2023-12-07T02:53:50;-0.60;99.90
4215;DHT22;2121;48.062;7.850;2023-12-07T02:56:16;-0.70;99.90
4215;DHT22;2121;48.062;7.850;2023-12-07T02:58:42;-0.80;99.90
4215;DHT22;2121;48.062;7.850;2023-12-07T03:01:07;-0.90;99.90
4215;DHT22;2121;48.062;7.850;2023-12-07T03:03:33;-0.90;99.90
4215;DHT22;2121;48.062;7.850;2023-12-07T03:05:59;-1.00;99.90
4215;DHT22;2121;48.062;7.850;2023-12-07T03:08:24;-1.00;99.90
4215;DHT22;2121;48.062;7.850;2023-12-07T03:10:50;-1.00;99.90
4215;DHT22;2121;48.062;7.850;2023-12-07T03:13:16;-1.10;99.90
4215;DHT22;2121;48.062;7.850;2023-12-07T03:15:41;-1.10;99.90
4215;DHT22;2121;48.062;7.850;2023-12-07T03:18:07;-1.10;99.90
4215;DHT22;2121;48.062;7.850;2023-12-07T03:20:34;-1.10;99.90
4215;DHT22;2121;48.062;7.850;2023-12-07T03:22:59;-1.00;99.90
4215;DHT22;2121;48.062;7.850;2023-12-07T03:25:25;-0.90;99.90
4215;DHT22;2121;48.062;7.850;2023-12-07T03:27:51;-0.90;99.90
4215;DHT22;2121;48.062;7.850;2023-12-07T03:30:17;-0.80;99.90
4215;DHT22;2121;48.062;7.850;2023-12-07T03:32:43;-0.80;99.90
4215;DHT22;2121;48.062;7.850;2023-12-07T03:35:08;-0.80;99.90
4215;DHT22;2121;48.062;7.850;2023-12-07T03:37:34;-0.70;99.90
4215;DHT22;2121;48.062;7.850;2023-12-07T03:40:00;-0.70;99.90
4215;DHT22;2121;48.062;7.850;2023-12-07T03:42:25;-0.70;99.90
4215;DHT22;2121;48.062;7.850;2023-12-07T03:44:51;-0.60;99.90
4215;DHT22;2121;48.062;7.850;2023-12-07T03:47:17;-0.50;99.90
4215;DHT22;2121;48.062;7.850;2023-12-07T03:49:44;-0.60;99.90
4215;DHT22;2121;48.062;7.850;2023-12-07T03:52:10;-0.60;99.90
4215;DHT22;2121;48.062;7.850;2023-12-07T03:54:36;-0.60;99.90
4215;DHT22;2121;48.062;7.850;2023-12-07T03:57:03;-0.70;99.90
4215;DHT22;2121;48.062;7.850;2023-12-07T03:59:29;-0.80;99.90
4215;DHT22;2121;48.062;7.850;2023-12-07T04:01:54;-0.90;99.90
4215;DHT22;2121;48.062;7.850;2023-12-07T04:04:20;-1.10;99.90
4215;DHT22;2121;48.062;7.850;2023-12-07T04:06:46;-1.10;99.90
4215;DHT22;2121;48.062;7.850;2023-12-07T04:09:11;-1.00;99.90
4215;DHT22;2121;48.062;7.850;2023-12-07T04:11:37;-1.00;99.90
4215;DHT22;2121;48.062;7.850;2023-12-07T04:14:03;-1.10;99.90
4215;DHT22;2121;48.062;7.850;2023-12-07T04:16:29;-1.10;99.90
4215;DHT22;2121;48.062;7.850;2023-12-07T04:18:55;-1.30;99.90
4215;DHT22;2121;48.062;7.850;2023-12-07T04:21:20;-1.40;99.90
4215;DHT22;2121;48.062;7.850;2023-12-07T04:23:46;-1.30;99.90
4215;DHT22;2121;48.062;7.850;2023-12-07T04:26:12;-1.30;99.90
4215;DHT22;2121;48.062;7.850;2023-12-07T04:28:38;-1.20;99.90
4215;DHT22;2121;48.062;7.850;2023-12-07T04:31:04;-1.20;99.90
4215;DHT22;2121;48.062;7.850;2023-12-07T04:33:30;-1.20;99.90
4215;DHT22;2121;48.062;7.850;2023-12-07T04:35:56;-1.20;99.90
4215;DHT22;2121;48.062;7.850;2023-12-07T04:38:21;-1.30;99.90
4215;DHT22;2121;48.062;7.850;2023-12-07T04:40:47;-1.50;99.90
4215;DHT22;2121;48.062;7.850;2023-12-07T04:43:13;-1.60;99.90
4215;DHT22;2121;48.062;7.850;2023-12-07T04:45:38;-1.60;99.90
4215;DHT22;2121;48.062;7.850;2023-12-07T04:48:04;-1.50;99.90
4215;DHT22;2121;48.062;7.850;2023-12-07T04:50:30;-1.50;99.90
4215;DHT22;2121;48.062;7.850;2023-12-07T04:52:56;-1.70;99.90
4215;DHT22;2121;48.062;7.850;2023-12-07T04:55:22;-1.80;99.90
4215;DHT22;2121;48.062;7.850;2023-12-07T04:57:48;-2.00;99.90
4215;DHT22;2121;48.062;7.850;2023-12-07T05:00:14;-1.90;99.90
4215;DHT22;2121;48.062;7.850;2023-12-07T05:02:40;-1.70;99.90
4215;DHT22;2121;48.062;7.850;2023-12-07T05:05:06;-1.70;99.90
4215;DHT22;2121;48.062;7.850;2023-12-07T05:07:31;-1.90;99.90
4215;DHT22;2121;48.062;7.850;2023-12-07T05:09:57;-2.10;99.90
4215;DHT22;2121;48.062;7.850;2023-12-07T05:12:23;-2.00;99.90
4215;DHT22;2121;48.062;7.850;2023-12-07T05:14:49;-1.90;99.90
4215;DHT22;2121;48.062;7.850;2023-12-07T05:17:15;-1.80;99.90
4215;DHT22;2121;48.062;7.850;2023-12-07T05:19:41;-1.80;99.90
4215;DHT22;2121;48.062;7.850;2023-12-07T05:22:07;-2.00;99.90
4215;DHT22;2121;48.062;7.850;2023-12-07T05:24:34;-2.10;99.90
4215;DHT22;2121;48.062;7.850;2023-12-07T05:27:00;-2.00;99.90
4215;DHT22;2121;48.062;7.850;2023-12-07T05:29:26;-1.90;99.90
4215;DHT22;2121;48.062;7.850;2023-12-07T05:31:52;-2.00;99.90
4215;DHT22;2121;48.062;7.850;2023-12-07T05:34:17;-2.10;99.90
4215;DHT22;2121;48.062;7.850;2023-12-07T05:36:44;-2.20;99.90
4215;DHT22;2121;48.062;7.850;2023-12-07T05:39:11;-2.20;99.90
4215;DHT22;2121;48.062;7.850;2023-12-07T05:41:38;-2.30;99.90
4215;DHT22;2121;48.062;7.850;2023-12-07T05:44:04;-2.30;99.90
4215;DHT22;2121;48.062;7.850;2023-12-07T05:46:30;-2.10;99.90
4215;DHT22;2121;48.062;7.850;2023-12-07T05:48:56;-2.10;99.90
4215;DHT22;2121;48.062;7.850;2023-12-07T05:51:23;-2.20;99.90
4215;DHT22;2121;48.062;7.850;2023-12-07T05:53:49;-2.30;99.90
4215;DHT22;2121;48.062;7.850;2023-12-07T05:56:18;-2.40;99.90
4215;DHT22;2121;48.062;7.850;2023-12-07T05:58:45;-2.40;99.90
4215;DHT22;2121;48.062;7.850;2023-12-07T06:01:12;-2.40;99.90
4215;DHT22;2121;48.062;7.850;2023-12-07T06:03:38;-2.40;99.90
4215;DHT22;2121;48.062;7.850;2023-12-07T06:06:04;-2.40;99.90
4215;DHT22;2121;48.062;7.850;2023-12-07T06:08:30;-2.50;99.90
4215;DHT22;2121;48.062;7.850;2023-12-07T06:10:56;-2.60;99.90
4215;DHT22;2121;48.062;7.850;2023-12-07T06:13:21;-2.50;99.90
4215;DHT22;2121;48.062;7.850;2023-12-07T06:15:47;-2.20;99.90
4215;DHT22;2121;48.062;7.850;2023-12-07T06:18:13;-2.20;99.90
4215;DHT22;2121;48.062;7.850;2023-12-07T06:20:38;-2.20;99.90
4215;DHT22;2121;48.062;7.850;2023-12-07T06:23:04;-2.30;99.90
4215;DHT22;2121;48.062;7.850;2023-12-07T06:25:30;-2.40;99.90
4215;DHT22;2121;48.062;7.850;2023-12-07T06:27:56;-2.40;99.90
4215;DHT22;2121;48.062;7.850;2023-12-07T06:30:21;-2.40;99.90
4215;DHT22;2121;48.062;7.850;2023-12-07T06:32:47;-2.30;99.90
4215;DHT22;2121;48.062;7.850;2023-12-07T06:35:13;-2.40;99.90
4215;DHT22;2121;48.062;7.850;2023-12-07T06:37:39;-2.50;99.90
4215;DHT22;2121;48.062;7.850;2023-12-07T06:40:11;-2.50;99.90
4215;DHT22;2121;48.062;7.850;2023-12-07T06:42:37;-2.50;99.90
4215;DHT22;2121;48.062;7.850;2023-12-07T06:45:03;-2.50;99.90
4215;DHT22;2121;48.062;7.850;2023-12-07T06:47:29;-2.50;99.90
4215;DHT22;2121;48.062;7.850;2023-12-07T06:49:56;-2.50;99.90
4215;DHT22;2121;48.062;7.850;2023-12-07T06:52:21;-2.50;99.90
4215;DHT22;2121;48.062;7.850;2023-12-07T06:54:47;-2.60;99.90
4215;DHT22;2121;48.062;7.850;2023-12-07T06:57:13;-2.50;99.90
4215;DHT22;2121;48.062;7.850;2023-12-07T06:59:39;-2.40;99.90
4215;DHT22;2121;48.062;7.850;2023-12-07T07:02:06;-2.30;99.90
4215;DHT22;2121;48.062;7.850;2023-12-07T07:04:32;-2.00;99.90
4215;DHT22;2121;48.062;7.850;2023-12-07T07:06:58;-2.20;99.90
4215;DHT22;2121;48.062;7.850;2023-12-07T07:09:23;-2.30;99.90
4215;DHT22;2121;48.062;7.850;2023-12-07T07:11:50;-2.50;99.90
4215;DHT22;2121;48.062;7.850;2023-12-07T07:14:16;-2.60;99.90
4215;DHT22;2121;48.062;7.850;2023-12-07T07:16:42;-2.60;99.90
4215;DHT22;2121;48.062;7.850;2023-12-07T07:19:08;-2.60;99.90
4215;DHT22;2121;48.062;7.850;2023-12-07T07:21:34;-2.50;99.90
4215;DHT22;2121;48.062;7.850;2023-12-07T07:23:59;-2.60;99.90
4215;DHT22;2121;48.062;7.850;2023-12-07T07:26:25;-2.50;99.90
4215;DHT22;2121;48.062;7.850;2023-12-07T07:28:52;-2.40;99.90
4215;DHT22;2121;48.062;7.850;2023-12-07T07:31:18;-2.40;99.90
4215;DHT22;2121;48.062;7.850;2023-12-07T07:33:45;-2.40;99.90
4215;DHT22;2121;48.062;7.850;2023-12-07T07:36:13;-2.50;99.90
4215;DHT22;2121;48.062;7.850;2023-12-07T07:38:40;-2.40;99.90
4215;DHT22;2121;48.062;7.850;2023-12-07T07:41:06;-2.20;99.90
4215;DHT22;2121;48.062;7.850;2023-12-07T07:43:32;-2.20;99.90
4215;DHT22;2121;48.062;7.850;2023-12-07T07:46:00;-2.20;99.90
4215;DHT22;2121;48.062;7.850;2023-12-07T07:48:26;-2.10;99.90
4215;DHT22;2121;48.062;7.850;2023-12-07T07:50:52;-2.00;99.90
4215;DHT22;2121;48.062;7.850;2023-12-07T07:53:17;-1.90;99.90
4215;DHT22;2121;48.062;7.850;2023-12-07T07:55:43;-1.80;99.90
4215;DHT22;2121;48.062;7.850;2023-12-07T07:58:09;-1.80;99.90
4215;DHT22;2121;48.062;7.850;2023-12-07T08:00:35;-1.80;99.90
4215;DHT22;2121;48.062;7.850;2023-12-07T08:03:01;-1.70;99.90
4215;DHT22;2121;48.062;7.850;2023-12-07T08:05:26;-1.70;99.90
4215;DHT22;2121;48.062;7.850;2023-12-07T08:07:52;-1.60;99.90
4215;DHT22;2121;48.062;7.850;2023-12-07T08:10:18;-1.50;99.90
4215;DHT22;2121;48.062;7.850;2023-12-07T08:12:43;-1.40;99.90
4215;DHT22;2121;48.062;7.850;2023-12-07T08:15:10;-1.40;99.90
4215;DHT22;2121;48.062;7.850;2023-12-07T08:17:45;-1.30;99.90
4215;DHT22;2121;48.062;7.850;2023-12-07T08:20:11;-1.30;99.90
4215;DHT22;2121;48.062;7.850;2023-12-07T08:22:38;-1.20;99.90
4215;DHT22;2121;48.062;7.850;2023-12-07T08:25:06;-1.10;99.90
4215;DHT22;2121;48.062;7.850;2023-12-07T08:27:34;-0.90;99.90
4215;DHT22;2121;48.062;7.850;2023-12-07T08:30:00;-0.80;99.90
4215;DHT22;2121;48.062;7.850;2023-12-07T08:32:26;-0.60;99.90
4215;DHT22;2121;48.062;7.850;2023-12-07T08:34:52;-0.50;99.90
4215;DHT22;2121;48.062;7.850;2023-12-07T08:37:18;-0.50;99.90
4215;DHT22;2121;48.062;7.850;2023-12-07T08:39:45;-0.40;99.90
4215;DHT22;2121;48.062;7.850;2023-12-07T08:42:11;-0.30;99.90
4215;DHT22;2121;48.062;7.850;2023-12-07T08:44:37;0.00;99.90
4215;DHT22;2121;48.062;7.850;2023-12-07T08:47:03;0.10;99.90
4215;DHT22;2121;48.062;7.850;2023-12-07T08:49:29;0.10;99.90
4215;DHT22;2121;48.062;7.850;2023-12-07T08:51:57;0.10;99.90
4215;DHT22;2121;48.062;7.850;2023-12-07T08:54:23;0.10;99.90
4215;DHT22;2121;48.062;7.850;2023-12-07T08:56:48;0.00;99.90
4215;DHT22;2121;48.062;7.850;2023-12-07T08:59:14;-0.20;99.90
4215;DHT22;2121;48.062;7.850;2023-12-07T09:01:40;-0.10;99.90
4215;DHT22;2121;48.062;7.850;2023-12-07T09:04:06;-0.10;99.90
4215;DHT22;2121;48.062;7.850;2023-12-07T09:06:31;0.10;99.90
4215;DHT22;2121;48.062;7.850;2023-12-07T09:08:57;0.30;99.90
4215;DHT22;2121;48.062;7.850;2023-12-07T09:11:23;0.40;99.90
4215;DHT22;2121;48.062;7.850;2023-12-07T09:13:49;0.40;99.90
4215;DHT22;2121;48.062;7.850;2023-12-07T09:16:15;0.50;99.90
4215;DHT22;2121;48.062;7.850;2023-12-07T09:18:43;0.60;99.90
4215;DHT22;2121;48.062;7.850;2023-12-07T09:21:11;0.80;99.90
4215;DHT22;2121;48.062;7.850;2023-12-07T09:23:37;0.80;99.90
4215;DHT22;2121;48.062;7.850;2023-12-07T09:26:03;0.80;99.90
4215;DHT22;2121;48.062;7.850;2023-12-07T09:28:29;0.90;99.90
4215;DHT22;2121;48.062;7.850;2023-12-07T09:30:56;1.10;99.90
4215;DHT22;2121;48.062;7.850;2023-12-07T09:33:22;1.20;99.90
4215;DHT22;2121;48.062;7.850;2023-12-07T09:35:48;1.20;99.90
4215;DHT22;2121;48.062;7.850;2023-12-07T09:38:14;1.40;99.90
4215;DHT22;2121;48.062;7.850;2023-12-07T09:40:40;1.40;99.90
4215;DHT22;2121;48.062;7.850;2023-12-07T09:43:06;1.50;99.90
4215;DHT22;2121;48.062;7.850;2023-12-07T09:45:32;1.70;99.90
4215;DHT22;2121;48.062;7.850;2023-12-07T09:47:58;1.90;99.90
4215;DHT22;2121;48.062;7.850;2023-12-07T09:50:26;2.20;99.90
4215;DHT22;2121;48.062;7.850;2023-12-07T09:52:57;2.00;99.90
4215;DHT22;2121;48.062;7.850;2023-12-07T09:55:24;1.80;99.90
4215;DHT22;2121;48.062;7.850;2023-12-07T09:57:51;1.80;99.90
4215;DHT22;2121;48.062;7.850;2023-12-07T10:00:17;1.80;99.90
4215;DHT22;2121;48.062;7.850;2023-12-07T10:02:45;1.70;99.90
4215;DHT22;2121;48.062;7.850;2023-12-07T10:05:13;1.60;99.90
4215;DHT22;2121;48.062;7.850;2023-12-07T10:07:44;1.90;99.90
4215;DHT22;2121;48.062;7.850;2023-12-07T10:10:14;2.30;99.90
4215;DHT22;2121;48.062;7.850;2023-12-07T10:12:51;2.80;99.90
4215;DHT22;2121;48.062;7.850;2023-12-07T10:15:19;2.80;99.90
4215;DHT22;2121;48.062;7.850;2023-12-07T10:17:50;2.90;99.90
4215;DHT22;2121;48.062;7.850;2023-12-07T10:20:18;3.10;99.90
4215;DHT22;2121;48.062;7.850;2023-12-07T10:23:02;3.30;99.90
4215;DHT22;2121;48.062;7.850;2023-12-07T10:25:36;3.50;99.90
4215;DHT22;2121;48.062;7.850;2023-12-07T10:28:03;4.00;99.90
4215;DHT22;2121;48.062;7.850;2023-12-07T10:30:32;4.30;99.90
4215;DHT22;2121;48.062;7.850;2023-12-07T10:32:59;4.40;99.90
4215;DHT22;2121;48.062;7.850;2023-12-07T10:35:25;4.20;99.90
4215;DHT22;2121;48.062;7.850;2023-12-07T10:37:51;4.00;99.90
4215;DHT22;2121;48.062;7.850;2023-12-07T10:40:17;3.90;99.90
4215;DHT22;2121;48.062;7.850;2023-12-07T10:42:48;3.60;99.90
4215;DHT22;2121;48.062;7.850;2023-12-07T10:45:15;3.30;99.90
4215;DHT22;2121;48.062;7.850;2023-12-07T10:47:43;3.30;99.90
4215;DHT22;2121;48.062;7.850;2023-12-07T10:50:10;3.50;99.90
4215;DHT22;2121;48.062;7.850;2023-12-07T10:52:44;3.70;99.90
4215;DHT22;2121;48.062;7.850;2023-12-07T10:55:16;3.70;99.90
4215;DHT22;2121;48.062;7.850;2023-12-07T10:57:46;3.50;99.90
4215;DHT22;2121;48.062;7.850;2023-12-07T11:00:13;3.60;99.90
4215;DHT22;2121;48.062;7.850;2023-12-07T11:02:39;3.50;99.90
4215;DHT22;2121;48.062;7.850;2023-12-07T11:05:06;3.30;99.90
4215;DHT22;2121;48.062;7.850;2023-12-07T11:07:52;3.20;99.90
4215;DHT22;2121;48.062;7.850;2023-12-07T11:10:50;3.20;99.90
4215;DHT22;2121;48.062;7.850;2023-12-07T11:13:29;3.00;99.90
4215;DHT22;2121;48.062;7.850;2023-12-07T11:15:57;3.10;99.90
4215;DHT22;2121;48.062;7.850;2023-12-07T11:18:27;3.00;99.90
4215;DHT22;2121;48.062;7.850;2023-12-07T11:20:54;2.90;99.90
4215;DHT22;2121;48.062;7.850;2023-12-07T11:23:21;3.10;99.90
4215;DHT22;2121;48.062;7.850;2023-12-07T11:25:48;2.90;99.90
4215;DHT22;2121;48.062;7.850;2023-12-07T11:28:16;2.90;99.90
4215;DHT22;2121;48.062;7.850;2023-12-07T11:30:44;3.20;99.90
4215;DHT22;2121;48.062;7.850;2023-12-07T11:33:11;3.60;99.90
4215;DHT22;2121;48.062;7.850;2023-12-07T11:38:27;3.80;99.90
4215;DHT22;2121;48.062;7.850;2023-12-07T11:40:54;3.60;99.90
4215;DHT22;2121;48.062;7.850;2023-12-07T11:45:58;4.00;99.90
4215;DHT22;2121;48.062;7.850;2023-12-07T11:48:24;4.00;99.90
4215;DHT22;2121;48.062;7.850;2023-12-07T11:53:27;3.80;99.90
4215;DHT22;2121;48.062;7.850;2023-12-07T11:56:02;3.80;99.90
4215;DHT22;2121;48.062;7.850;2023-12-07T11:58:31;3.60;99.90
4215;DHT22;2121;48.062;7.850;2023-12-07T12:00:58;3.70;99.90
4215;DHT22;2121;48.062;7.850;2023-12-07T12:03:28;4.20;99.90
4215;DHT22;2121;48.062;7.850;2023-12-07T12:05:56;4.50;99.90
4215;DHT22;2121;48.062;7.850;2023-12-07T12:08:22;4.40;99.90
4215;DHT22;2121;48.062;7.850;2023-12-07T12:10:50;4.80;99.90
4215;DHT22;2121;48.062;7.850;2023-12-07T12:13:17;5.10;99.90
4215;DHT22;2121;48.062;7.850;2023-12-07T12:15:44;5.00;99.90
4215;DHT22;2121;48.062;7.850;2023-12-07T12:18:12;5.00;99.90
4215;DHT22;2121;48.062;7.850;2023-12-07T12:20:39;4.80;99.90
4215;DHT22;2121;48.062;7.850;2023-12-07T12:23:05;5.00;99.90
4215;DHT22;2121;48.062;7.850;2023-12-07T12:25:32;5.10;99.90
4215;DHT22;2121;48.062;7.850;2023-12-07T12:28:01;5.00;99.90
4215;DHT22;2121;48.062;7.850;2023-12-07T12:30:29;4.90;99.90
4215;DHT22;2121;48.062;7.850;2023-12-07T12:32:56;4.60;99.90
4215;DHT22;2121;48.062;7.850;2023-12-07T12:35:22;4.60;99.90
4215;DHT22;2121;48.062;7.850;2023-12-07T12:37:49;4.50;99.90
4215;DHT22;2121;48.062;7.850;2023-12-07T12:40:17;4.50;99.90
4215;DHT22;2121;48.062;7.850;2023-12-07T12:42:45;4.60;99.90
4215;DHT22;2121;48.062;7.850;2023-12-07T12:45:16;4.70;99.90
4215;DHT22;2121;48.062;7.850;2023-12-07T12:47:44;4.70;99.90
4215;DHT22;2121;48.062;7.850;2023-12-07T12:50:37;4.60;99.90
4215;DHT22;2121;48.062;7.850;2023-12-07T12:53:05;4.40;99.90
4215;DHT22;2121;48.062;7.850;2023-12-07T12:55:35;4.40;99.90
4215;DHT22;2121;48.062;7.850;2023-12-07T12:58:01;4.30;99.90
4215;DHT22;2121;48.062;7.850;2023-12-07T13:00:30;4.30;99.90
4215;DHT22;2121;48.062;7.850;2023-12-07T13:02:59;4.20;99.90
4215;DHT22;2121;48.062;7.850;2023-12-07T13:05:26;4.30;99.90
4215;DHT22;2121;48.062;7.850;2023-12-07T13:07:52;4.50;99.90
4215;DHT22;2121;48.062;7.850;2023-12-07T13:10:18;4.40;99.90
4215;DHT22;2121;48.062;7.850;2023-12-07T13:12:44;4.30;99.90
4215;DHT22;2121;48.062;7.850;2023-12-07T13:15:11;4.30;99.90
4215;DHT22;2121;48.062;7.850;2023-12-07T13:17:41;4.30;99.90
4215;DHT22;2121;48.062;7.850;2023-12-07T13:20:08;4.30;99.90
4215;DHT22;2121;48.062;7.850;2023-12-07T13:22:38;4.20;99.90
4215;DHT22;2121;48.062;7.850;2023-12-07T13:25:06;4.10;99.90
4215;DHT22;2121;48.062;7.850;2023-12-07T13:27:33;4.10;99.90
4215;DHT22;2121;48.062;7.850;2023-12-07T13:30:00;4.00;99.90
4215;DHT22;2121;48.062;7.850;2023-12-07T13:32:26;4.10;99.90
4215;DHT22;2121;48.062;7.850;2023-12-07T13:34:51;4.00;99.90
4215;DHT22;2121;48.062;7.850;2023-12-07T13:37:17;3.90;99.90
4215;DHT22;2121;48.062;7.850;2023-12-07T13:39:43;3.80;99.90
4215;DHT22;2121;48.062;7.850;2023-12-07T13:42:09;3.80;99.90
4215;DHT22;2121;48.062;7.850;2023-12-07T13:44:38;3.80;99.90
4215;DHT22;2121;48.062;7.850;2023-12-07T13:47:03;4.20;99.90
4215;DHT22;2121;48.062;7.850;2023-12-07T13:49:29;4.40;99.90
4215;DHT22;2121;48.062;7.850;2023-12-07T13:51:55;4.30;99.90
4215;DHT22;2121;48.062;7.850;2023-12-07T13:54:20;4.30;99.90
4215;DHT22;2121;48.062;7.850;2023-12-07T13:56:47;4.20;99.90
4215;DHT22;2121;48.062;7.850;2023-12-07T13:59:13;3.80;99.90
4215;DHT22;2121;48.062;7.850;2023-12-07T14:01:39;3.50;99.90
4215;DHT22;2121;48.062;7.850;2023-12-07T14:04:06;3.20;99.90
4215;DHT22;2121;48.062;7.850;2023-12-07T14:06:33;3.10;99.90
4215;DHT22;2121;48.062;7.850;2023-12-07T14:09:01;2.90;99.90
4215;DHT22;2121;48.062;7.850;2023-12-07T14:11:28;2.70;99.90
4215;DHT22;2121;48.062;7.850;2023-12-07T14:13:54;2.70;99.90
4215;DHT22;2121;48.062;7.850;2023-12-07T14:16:20;2.50;99.90
4215;DHT22;2121;48.062;7.850;2023-12-07T14:18:46;2.20;99.90
4215;DHT22;2121;48.062;7.850;2023-12-07T14:21:12;2.10;99.90
4215;DHT22;2121;48.062;7.850;2023-12-07T14:23:40;2.00;99.90
4215;DHT22;2121;48.062;7.850;2023-12-07T14:26:05;1.90;99.90
4215;DHT22;2121;48.062;7.850;2023-12-07T14:28:31;1.90;99.90
4215;DHT22;2121;48.062;7.850;2023-12-07T14:30:59;1.90;99.90
4215;DHT22;2121;48.062;7.850;2023-12-07T14:33:25;2.00;99.90
4215;DHT22;2121;48.062;7.850;2023-12-07T14:35:51;1.90;99.90
4215;DHT22;2121;48.062;7.850;2023-12-07T14:38:17;1.70;99.90
4215;DHT22;2121;48.062;7.850;2023-12-07T14:40:43;1.60;99.90
4215;DHT22;2121;48.062;7.850;2023-12-07T14:43:09;1.60;99.90
4215;DHT22;2121;48.062;7.850;2023-12-07T14:45:34;1.70;99.90
4215;DHT22;2121;48.062;7.850;2023-12-07T14:48:00;1.80;99.90
4215;DHT22;2121;48.062;7.850;2023-12-07T14:50:26;1.70;99.90
4215;DHT22;2121;48.062;7.850;2023-12-07T14:52:52;1.70;99.90
4215;DHT22;2121;48.062;7.850;2023-12-07T14:55:18;1.70;99.90
4215;DHT22;2121;48.062;7.850;2023-12-07T14:57:44;1.60;99.90
4215;DHT22;2121;48.062;7.850;2023-12-07T15:00:11;1.50;99.90
4215;DHT22;2121;48.062;7.850;2023-12-07T15:02:37;1.50;99.90
4215;DHT22;2121;48.062;7.850;2023-12-07T15:05:03;1.50;99.90
4215;DHT22;2121;48.062;7.850;2023-12-07T15:07:29;1.40;99.90
4215;DHT22;2121;48.062;7.850;2023-12-07T15:09:55;1.50;99.90
4215;DHT22;2121;48.062;7.850;2023-12-07T15:12:23;1.50;99.90
4215;DHT22;2121;48.062;7.850;2023-12-07T15:14:50;1.50;99.90
4215;DHT22;2121;48.062;7.850;2023-12-07T15:17:16;1.30;99.90
4215;DHT22;2121;48.062;7.850;2023-12-07T15:19:42;1.30;99.90
4215;DHT22;2121;48.062;7.850;2023-12-07T15:22:09;1.20;99.90
4215;DHT22;2121;48.062;7.850;2023-12-07T15:24:35;1.20;99.90
4215;DHT22;2121;48.062;7.850;2023-12-07T15:27:01;1.10;99.90
4215;DHT22;2121;48.062;7.850;2023-12-07T15:29:28;1.00;99.90
4215;DHT22;2121;48.062;7.850;2023-12-07T15:31:54;1.00;99.90
4215;DHT22;2121;48.062;7.850;2023-12-07T15:34:19;0.90;99.90
4215;DHT22;2121;48.062;7.850;2023-12-07T15:36:45;0.90;99.90
4215;DHT22;2121;48.062;7.850;2023-12-07T15:39:11;0.90;99.90
4215;DHT22;2121;48.062;7.850;2023-12-07T15:41:37;0.80;99.90
4215;DHT22;2121;48.062;7.850;2023-12-07T15:44:03;0.80;99.90
4215;DHT22;2121;48.062;7.850;2023-12-07T15:46:29;0.70;99.90
4215;DHT22;2121;48.062;7.850;2023-12-07T15:48:55;0.70;99.90
4215;DHT22;2121;48.062;7.850;2023-12-07T15:51:21;0.60;99.90
4215;DHT22;2121;48.062;7.850;2023-12-07T15:53:47;0.60;99.90
4215;DHT22;2121;48.062;7.850;2023-12-07T15:56:12;0.70;99.90
4215;DHT22;2121;48.062;7.850;2023-12-07T15:58:38;0.70;99.90
4215;DHT22;2121;48.062;7.850;2023-12-07T16:01:04;0.60;99.90
4215;DHT22;2121;48.062;7.850;2023-12-07T16:03:30;0.60;99.90
4215;DHT22;2121;48.062;7.850;2023-12-07T16:05:56;0.60;99.90
4215;DHT22;2121;48.062;7.850;2023-12-07T16:08:22;0.50;99.90
4215;DHT22;2121;48.062;7.850;2023-12-07T16:10:49;0.50;99.90
4215;DHT22;2121;48.062;7.850;2023-12-07T16:13:15;0.50;99.90
4215;DHT22;2121;48.062;7.850;2023-12-07T16:15:40;0.60;99.90
4215;DHT22;2121;48.062;7.850;2023-12-07T16:18:06;0.60;99.90
4215;DHT22;2121;48.062;7.850;2023-12-07T16:20:33;0.60;99.90